sensor_id;sensor_type;location;lat;lon;timestamp;temperature;humidity
71649;SHT31;70112;45.624;11.760;2023-07-16T00:02:22;25.81;73.09
71649;SHT31;70112;45.624;11.760;2023-07-16T00:04:47;25.84;73.01
71649;SHT31;70112;45.624;11.760;2023-07-16T00:07:13;25.87;72.93
71649;SHT31;70112;45.624;11.760;2023-07-16T00:09:38;25.86;72.91
71649;SHT31;70112;45.624;11.760;2023-07-16T00:12:04;25.89;72.81
71649;SHT31;70112;45.624;11.760;2023-07-16T00:14:30;25.92;72.73
71649;SHT31;70112;45.624;11.760;2023-07-16T00:16:55;25.91;72.70
71649;SHT31;70112;45.624;11.760;2023-07-16T00:19:22;25.83;72.71
71649;SHT31;70112;45.624;11.760;2023-07-16T00:21:48;25.68;72.89
71649;SHT31;70112;45.624;11.760;2023-07-16T00:24:14;25.65;73.08
71649;SHT31;70112;45.624;11.760;2023-07-16T00:26:39;25.65;73.08
71649;SHT31;70112;45.624;11.760;2023-07-16T00:29:05;25.67;73.06
71649;SHT31;70112;45.624;11.760;2023-07-16T00:31:30;25.64;73.28
71649;SHT31;70112;45.624;11.760;2023-07-16T00:33:56;25.52;73.40
71649;SHT31;70112;45.624;11.760;2023-07-16T00:36:21;25.46;73.57
71649;SHT31;70112;45.624;11.760;2023-07-16T00:38:47;25.51;73.60
71649;SHT31;70112;45.624;11.760;2023-07-16T00:41:12;25.55;73.61
71649;SHT31;70112;45.624;11.760;2023-07-16T00:43:39;25.56;73.60
71649;SHT31;70112;45.624;11.760;2023-07-16T00:46:05;25.58;73.54
71649;SHT31;70112;45.624;11.760;2023-07-16T00:48:31;25.61;73.56
71649;SHT31;70112;45.624;11.760;2023-07-16T00:50:57;25.63;73.62
71649;SHT31;70112;45.624;11.760;2023-07-16T00:53:25;25.64;73.65
71649;SHT31;70112;45.624;11.760;2023-07-16T00:55:51;25.66;73.70
71649;SHT31;70112;45.624;11.760;2023-07-16T00:58:17;25.61;73.84
71649;SHT31;70112;45.624;11.760;2023-07-16T01:00:42;25.59;73.89
71649;SHT31;70112;45.624;11.760;2023-07-16T01:03:12;25.57;73.99
71649;SHT31;70112;45.624;11.760;2023-07-16T01:09:03;25.52;74.15
71649;SHT31;70112;45.624;11.760;2023-07-16T01:11:34;25.50;74.19
71649;SHT31;70112;45.624;11.760;2023-07-16T01:14:01;25.49;74.19
71649;SHT31;70112;45.624;11.760;2023-07-16T01:16:28;25.50;74.16
71649;SHT31;70112;45.624;11.760;2023-07-16T01:18:54;25.53;74.17
71649;SHT31;70112;45.624;11.760;2023-07-16T01:21:21;25.55;74.22
71649;SHT31;70112;45.624;11.760;2023-07-16T01:32:11;25.09;74.90
71649;SHT31;70112;45.624;11.760;2023-07-16T01:34:37;24.95;75.29
71649;SHT31;70112;45.624;11.760;2023-07-16T01:37:04;24.82;75.61
71649;SHT31;70112;45.624;11.760;2023-07-16T01:39:30;24.70;75.83
71649;SHT31;70112;45.624;11.760;2023-07-16T01:41:58;24.65;76.02
71649;SHT31;70112;45.624;11.760;2023-07-16T01:44:23;24.60;76.22
71649;SHT31;70112;45.624;11.760;2023-07-16T01:46:53;24.56;76.44
71649;SHT31;70112;45.624;11.760;2023-07-16T01:49:30;24.58;76.52
71649;SHT31;70112;45.624;11.760;2023-07-16T01:51:56;24.66;76.39
71649;SHT31;70112;45.624;11.760;2023-07-16T01:54:21;24.75;76.37
71649;SHT31;70112;45.624;11.760;2023-07-16T01:56:47;24.81;76.31
71649;SHT31;70112;45.624;11.760;2023-07-16T01:59:12;24.85;76.27
71649;SHT31;70112;45.624;11.760;2023-07-16T02:01:38;24.88;76.25
71649;SHT31;70112;45.624;11.760;2023-07-16T02:04:03;24.89;76.29
71649;SHT31;70112;45.624;11.760;2023-07-16T02:06:29;24.92;76.24
71649;SHT31;70112;45.624;11.760;2023-07-16T02:08:54;24.92;76.27
71649;SHT31;70112;45.624;11.760;2023-07-16T02:11:19;24.92;76.24
71649;SHT31;70112;45.624;11.760;2023-07-16T02:13:45;24.93;76.19
71649;SHT31;70112;45.624;11.760;2023-07-16T02:16:10;24.91;76.23
71649;SHT31;70112;45.624;11.760;2023-07-16T02:18:36;24.87;76.27
71649;SHT31;70112;45.624;11.760;2023-07-16T02:21:01;24.77;76.47
71649;SHT31;70112;45.624;11.760;2023-07-16T02:23:27;24.71;76.67
71649;SHT31;70112;45.624;11.760;2023-07-16T02:25:53;24.67;76.85
71649;SHT31;70112;45.624;11.760;2023-07-16T02:28:18;24.63;76.98
71649;SHT31;70112;45.624;11.760;2023-07-16T02:30:44;24.55;76.99
71649;SHT31;70112;45.624;11.760;2023-07-16T02:33:09;24.45;77.20
71649;SHT31;70112;45.624;11.760;2023-07-16T02:35:35;24.45;77.38
71649;SHT31;70112;45.624;11.760;2023-07-16T02:38:00;24.48;77.45
71649;SHT31;70112;45.624;11.760;2023-07-16T02:40:26;24.50;77.50
71649;SHT31;70112;45.624;11.760;2023-07-16T02:42:51;24.59;77.43
71649;SHT31;70112;45.624;11.760;2023-07-16T02:45:17;24.68;77.31
71649;SHT31;70112;45.624;11.760;2023-07-16T02:47:42;24.73;77.27
71649;SHT31;70112;45.624;11.760;2023-07-16T02:50:08;24.77;77.19
71649;SHT31;70112;45.624;11.760;2023-07-16T02:52:34;24.77;77.21
71649;SHT31;70112;45.624;11.760;2023-07-16T02:55:00;24.75;77.27
71649;SHT31;70112;45.624;11.760;2023-07-16T02:57:26;24.79;77.24
71649;SHT31;70112;45.624;11.760;2023-07-16T02:59:51;24.81;77.14
71649;SHT31;70112;45.624;11.760;2023-07-16T03:02:17;24.75;77.09
71649;SHT31;70112;45.624;11.760;2023-07-16T03:04:42;24.71;77.12
71649;SHT31;70112;45.624;11.760;2023-07-16T03:07:07;24.61;77.25
71649;SHT31;70112;45.624;11.760;2023-07-16T03:09:33;24.55;77.37
71649;SHT31;70112;45.624;11.760;2023-07-16T03:11:58;24.52;77.44
71649;SHT31;70112;45.624;11.760;2023-07-16T03:14:24;24.48;77.51
71649;SHT31;70112;45.624;11.760;2023-07-16T03:16:49;24.48;77.51
71649;SHT31;70112;45.624;11.760;2023-07-16T03:19:15;24.51;77.49
71649;SHT31;70112;45.624;11.760;2023-07-16T03:21:40;24.54;77.49
71649;SHT31;70112;45.624;11.760;2023-07-16T03:24:06;24.50;77.47
71649;SHT31;70112;45.624;11.760;2023-07-16T03:26:31;24.36;77.48
71649;SHT31;70112;45.624;11.760;2023-07-16T03:28:57;24.21;77.78
71649;SHT31;70112;45.624;11.760;2023-07-16T03:31:22;24.08;78.07
71649;SHT31;70112;45.624;11.760;2023-07-16T03:33:48;24.03;78.23
71649;SHT31;70112;45.624;11.760;2023-07-16T03:36:13;24.10;78.21
71649;SHT31;70112;45.624;11.760;2023-07-16T03:38:39;24.18;78.21
71649;SHT31;70112;45.624;11.760;2023-07-16T03:41:04;24.26;78.14
71649;SHT31;70112;45.624;11.760;2023-07-16T03:43:30;24.31;78.07
71649;SHT31;70112;45.624;11.760;2023-07-16T03:45:55;24.35;78.03
71649;SHT31;70112;45.624;11.760;2023-07-16T03:48:21;24.39;77.98
71649;SHT31;70112;45.624;11.760;2023-07-16T03:50:46;24.35;77.91
71649;SHT31;70112;45.624;11.760;2023-07-16T03:53:12;24.26;77.99
71649;SHT31;70112;45.624;11.760;2023-07-16T03:55:37;24.25;78.00
71649;SHT31;70112;45.624;11.760;2023-07-16T03:58:03;24.22;78.09
71649;SHT31;70112;45.624;11.760;2023-07-16T04:00:28;24.11;78.14
71649;SHT31;70112;45.624;11.760;2023-07-16T04:02:54;24.07;78.28
71649;SHT31;70112;45.624;11.760;2023-07-16T04:05:19;24.12;78.32
71649;SHT31;70112;45.624;11.760;2023-07-16T04:07:45;24.17;78.29
71649;SHT31;70112;45.624;11.760;2023-07-16T04:10:10;24.23;78.29
71649;SHT31;70112;45.624;11.760;2023-07-16T04:12:36;24.28;78.29
71649;SHT31;70112;45.624;11.760;2023-07-16T04:15:06;24.32;78.24
71649;SHT31;70112;45.624;11.760;2023-07-16T04:17:35;24.34;78.26
71649;SHT31;70112;45.624;11.760;2023-07-16T04:20:01;24.40;78.19
71649;SHT31;70112;45.624;11.760;2023-07-16T04:22:28;24.40;78.15
71649;SHT31;70112;45.624;11.760;2023-07-16T04:24:53;24.40;78.20
71649;SHT31;70112;45.624;11.760;2023-07-16T04:27:18;24.39;78.18
71649;SHT31;70112;45.624;11.760;2023-07-16T04:29:44;24.44;78.21
71649;SHT31;70112;45.624;11.760;2023-07-16T04:32:09;24.48;78.22
71649;SHT31;70112;45.624;11.760;2023-07-16T04:34:35;24.50;78.24
71649;SHT31;70112;45.624;11.760;2023-07-16T04:37:01;24.52;78.23
71649;SHT31;70112;45.624;11.760;2023-07-16T04:39:26;24.55;78.32
71649;SHT31;70112;45.624;11.760;2023-07-16T04:41:51;24.55;78.32
71649;SHT31;70112;45.624;11.760;2023-07-16T04:44:17;24.58;78.30
71649;SHT31;70112;45.624;11.760;2023-07-16T04:46:42;24.62;78.26
71649;SHT31;70112;45.624;11.760;2023-07-16T04:49:08;24.70;78.10
71649;SHT31;70112;45.624;11.760;2023-07-16T04:51:34;24.77;77.99
71649;SHT31;70112;45.624;11.760;2023-07-16T04:53:59;24.84;77.76
71649;SHT31;70112;45.624;11.760;2023-07-16T04:56:25;24.89;77.58
71649;SHT31;70112;45.624;11.760;2023-07-16T04:58:51;24.98;77.57
71649;SHT31;70112;45.624;11.760;2023-07-16T05:01:16;25.07;77.31
71649;SHT31;70112;45.624;11.760;2023-07-16T05:03:42;25.16;77.09
71649;SHT31;70112;45.624;11.760;2023-07-16T05:06:07;25.25;76.96
71649;SHT31;70112;45.624;11.760;2023-07-16T05:08:33;25.35;76.77
71649;SHT31;70112;45.624;11.760;2023-07-16T05:10:58;25.43;76.51
71649;SHT31;70112;45.624;11.760;2023-07-16T05:13:24;25.53;76.21
71649;SHT31;70112;45.624;11.760;2023-07-16T05:15:49;25.59;76.05
71649;SHT31;70112;45.624;11.760;2023-07-16T05:18:15;25.65;75.91
71649;SHT31;70112;45.624;11.760;2023-07-16T05:20:41;25.73;75.74
71649;SHT31;70112;45.624;11.760;2023-07-16T05:23:07;25.78;75.57
71649;SHT31;70112;45.624;11.760;2023-07-16T05:25:35;25.82;75.49
71649;SHT31;70112;45.624;11.760;2023-07-16T05:28:00;25.88;75.33
71649;SHT31;70112;45.624;11.760;2023-07-16T05:30:26;25.93;75.16
71649;SHT31;70112;45.624;11.760;2023-07-16T05:32:51;26.01;75.00
71649;SHT31;70112;45.624;11.760;2023-07-16T05:35:17;26.10;74.76
71649;SHT31;70112;45.624;11.760;2023-07-16T05:37:42;26.19;74.45
71649;SHT31;70112;45.624;11.760;2023-07-16T05:40:07;26.29;74.13
71649;SHT31;70112;45.624;11.760;2023-07-16T05:42:34;26.37;74.03
71649;SHT31;70112;45.624;11.760;2023-07-16T05:45:00;26.46;73.79
71649;SHT31;70112;45.624;11.760;2023-07-16T05:47:25;26.58;73.52
71649;SHT31;70112;45.624;11.760;2023-07-16T05:49:51;26.75;73.07
71649;SHT31;70112;45.624;11.760;2023-07-16T05:52:16;26.87;72.83
71649;SHT31;70112;45.624;11.760;2023-07-16T05:54:43;26.88;72.62
71649;SHT31;70112;45.624;11.760;2023-07-16T05:57:10;26.95;72.48
71649;SHT31;70112;45.624;11.760;2023-07-16T05:59:35;27.03;72.22
71649;SHT31;70112;45.624;11.760;2023-07-16T06:02:02;27.12;71.97
71649;SHT31;70112;45.624;11.760;2023-07-16T06:04:31;27.19;71.69
71649;SHT31;70112;45.624;11.760;2023-07-16T06:06:56;27.26;71.42
71649;SHT31;70112;45.624;11.760;2023-07-16T06:09:22;27.33;71.19
71649;SHT31;70112;45.624;11.760;2023-07-16T06:11:48;27.42;70.84
71649;SHT31;70112;45.624;11.760;2023-07-16T06:14:14;27.49;70.57
71649;SHT31;70112;45.624;11.760;2023-07-16T06:16:40;27.57;70.39
71649;SHT31;70112;45.624;11.760;2023-07-16T06:19:06;27.75;70.21
71649;SHT31;70112;45.624;11.760;2023-07-16T06:21:31;27.84;69.94
71649;SHT31;70112;45.624;11.760;2023-07-16T06:23:57;27.91;69.73
71649;SHT31;70112;45.624;11.760;2023-07-16T06:26:22;28.06;69.49
71649;SHT31;70112;45.624;11.760;2023-07-16T06:28:48;28.28;69.06
71649;SHT31;70112;45.624;11.760;2023-07-16T06:31:17;28.98;68.19
71649;SHT31;70112;45.624;11.760;2023-07-16T06:33:42;29.25;67.44
71649;SHT31;70112;45.624;11.760;2023-07-16T06:36:08;29.20;67.16
71649;SHT31;70112;45.624;11.760;2023-07-16T06:38:34;29.10;66.83
71649;SHT31;70112;45.624;11.760;2023-07-16T06:40:59;29.08;66.87
71649;SHT31;70112;45.624;11.760;2023-07-16T06:43:25;29.22;66.57
71649;SHT31;70112;45.624;11.760;2023-07-16T06:45:51;29.22;66.20
71649;SHT31;70112;45.624;11.760;2023-07-16T06:48:16;29.24;66.21
71649;SHT31;70112;45.624;11.760;2023-07-16T06:50:43;29.34;66.22
71649;SHT31;70112;45.624;11.760;2023-07-16T06:53:08;29.29;66.01
71649;SHT31;70112;45.624;11.760;2023-07-16T06:55:34;29.15;66.77
71649;SHT31;70112;45.624;11.760;2023-07-16T06:58:00;29.16;67.27
71649;SHT31;70112;45.624;11.760;2023-07-16T07:00:26;29.27;67.20
71649;SHT31;70112;45.624;11.760;2023-07-16T07:02:51;29.44;66.74
71649;SHT31;70112;45.624;11.760;2023-07-16T07:05:17;29.66;66.53
71649;SHT31;70112;45.624;11.760;2023-07-16T07:07:42;29.98;65.99
71649;SHT31;70112;45.624;11.760;2023-07-16T07:10:10;30.34;65.68
71649;SHT31;70112;45.624;11.760;2023-07-16T07:12:39;30.70;65.28
71649;SHT31;70112;45.624;11.760;2023-07-16T07:15:06;31.10;65.02
71649;SHT31;70112;45.624;11.760;2023-07-16T07:17:32;31.46;64.40
71649;SHT31;70112;45.624;11.760;2023-07-16T07:19:57;31.69;63.49
71649;SHT31;70112;45.624;11.760;2023-07-16T07:22:23;31.87;62.73
71649;SHT31;70112;45.624;11.760;2023-07-16T07:24:49;32.09;61.76
71649;SHT31;70112;45.624;11.760;2023-07-16T07:27:15;32.25;61.56
71649;SHT31;70112;45.624;11.760;2023-07-16T07:29:41;32.38;61.58
71649;SHT31;70112;45.624;11.760;2023-07-16T07:32:06;32.47;61.25
71649;SHT31;70112;45.624;11.760;2023-07-16T07:34:32;32.48;60.60
71649;SHT31;70112;45.624;11.760;2023-07-16T07:36:58;32.38;59.67
71649;SHT31;70112;45.624;11.760;2023-07-16T07:39:23;32.17;59.79
71649;SHT31;70112;45.624;11.760;2023-07-16T07:41:49;32.06;60.25
71649;SHT31;70112;45.624;11.760;2023-07-16T07:44:14;31.99;60.42
71649;SHT31;70112;45.624;11.760;2023-07-16T07:46:40;31.93;60.58
71649;SHT31;70112;45.624;11.760;2023-07-16T07:49:05;31.84;60.76
71649;SHT31;70112;45.624;11.760;2023-07-16T07:51:31;31.75;60.84
71649;SHT31;70112;45.624;11.760;2023-07-16T07:53:56;31.61;60.66
71649;SHT31;70112;45.624;11.760;2023-07-16T07:56:22;31.44;60.43
71649;SHT31;70112;45.624;11.760;2023-07-16T07:58:47;31.28;60.84
71649;SHT31;70112;45.624;11.760;2023-07-16T08:01:13;31.18;61.19
71649;SHT31;70112;45.624;11.760;2023-07-16T08:03:38;31.09;61.44
71649;SHT31;70112;45.624;11.760;2023-07-16T08:06:04;31.02;61.44
71649;SHT31;70112;45.624;11.760;2023-07-16T08:08:29;30.93;61.48
71649;SHT31;70112;45.624;11.760;2023-07-16T08:10:55;30.82;61.08
71649;SHT31;70112;45.624;11.760;2023-07-16T08:13:20;30.68;61.50
71649;SHT31;70112;45.624;11.760;2023-07-16T08:15:46;30.62;61.81
71649;SHT31;70112;45.624;11.760;2023-07-16T08:18:13;30.56;61.86
71649;SHT31;70112;45.624;11.760;2023-07-16T08:20:38;30.51;61.93
71649;SHT31;70112;45.624;11.760;2023-07-16T08:23:05;30.46;62.17
71649;SHT31;70112;45.624;11.760;2023-07-16T08:25:31;30.45;62.63
71649;SHT31;70112;45.624;11.760;2023-07-16T08:27:57;30.42;62.78
71649;SHT31;70112;45.624;11.760;2023-07-16T08:30:22;30.39;62.62
71649;SHT31;70112;45.624;11.760;2023-07-16T08:32:48;30.37;62.60
71649;SHT31;70112;45.624;11.760;2023-07-16T08:35:15;30.34;62.27
71649;SHT31;70112;45.624;11.760;2023-07-16T08:37:44;30.32;62.15
71649;SHT31;70112;45.624;11.760;2023-07-16T08:40:10;30.27;61.90
71649;SHT31;70112;45.624;11.760;2023-07-16T08:42:37;30.22;62.12
71649;SHT31;70112;45.624;11.760;2023-07-16T08:45:06;30.20;62.33
71649;SHT31;70112;45.624;11.760;2023-07-16T08:47:38;30.19;62.00
71649;SHT31;70112;45.624;11.760;2023-07-16T08:50:04;30.20;62.17
71649;SHT31;70112;45.624;11.760;2023-07-16T08:52:30;30.21;61.86
71649;SHT31;70112;45.624;11.760;2023-07-16T08:54:56;30.22;61.54
71649;SHT31;70112;45.624;11.760;2023-07-16T08:57:22;30.23;61.75
71649;SHT31;70112;45.624;11.760;2023-07-16T08:59:48;30.25;62.13
71649;SHT31;70112;45.624;11.760;2023-07-16T09:02:18;30.25;62.47
71649;SHT31;70112;45.624;11.760;2023-07-16T09:04:48;30.25;62.62
71649;SHT31;70112;45.624;11.760;2023-07-16T09:07:16;30.26;62.82
71649;SHT31;70112;45.624;11.760;2023-07-16T09:09:42;30.30;62.96
71649;SHT31;70112;45.624;11.760;2023-07-16T09:12:13;30.31;63.11
71649;SHT31;70112;45.624;11.760;2023-07-16T09:14:42;30.36;63.32
71649;SHT31;70112;45.624;11.760;2023-07-16T09:17:07;30.42;63.26
71649;SHT31;70112;45.624;11.760;2023-07-16T09:19:33;30.45;62.90
71649;SHT31;70112;45.624;11.760;2023-07-16T09:21:58;30.50;63.18
71649;SHT31;70112;45.624;11.760;2023-07-16T09:24:25;30.56;62.95
71649;SHT31;70112;45.624;11.760;2023-07-16T09:26:51;30.63;62.42
71649;SHT31;70112;45.624;11.760;2023-07-16T09:29:19;30.70;62.34
71649;SHT31;70112;45.624;11.760;2023-07-16T09:31:58;30.78;62.39
71649;SHT31;70112;45.624;11.760;2023-07-16T09:34:27;30.89;62.33
71649;SHT31;70112;45.624;11.760;2023-07-16T09:36:54;31.06;62.39
71649;SHT31;70112;45.624;11.760;2023-07-16T09:39:22;31.33;61.97
71649;SHT31;70112;45.624;11.760;2023-07-16T09:41:48;31.70;61.48
71649;SHT31;70112;45.624;11.760;2023-07-16T09:44:15;32.20;61.07
71649;SHT31;70112;45.624;11.760;2023-07-16T09:46:42;32.70;60.44
71649;SHT31;70112;45.624;11.760;2023-07-16T09:49:09;33.26;59.57
71649;SHT31;70112;45.624;11.760;2023-07-16T09:51:35;33.83;58.59
71649;SHT31;70112;45.624;11.760;2023-07-16T09:54:02;34.40;57.21
71649;SHT31;70112;45.624;11.760;2023-07-16T09:56:43;34.90;55.38
71649;SHT31;70112;45.624;11.760;2023-07-16T09:59:14;36.57;53.55
71649;SHT31;70112;45.624;11.760;2023-07-16T10:01:42;39.49;47.27
71649;SHT31;70112;45.624;11.760;2023-07-16T10:04:12;41.63;44.34
71649;SHT31;70112;45.624;11.760;2023-07-16T10:07:19;43.79;42.53
71649;SHT31;70112;45.624;11.760;2023-07-16T10:09:54;45.80;38.11
71649;SHT31;70112;45.624;11.760;2023-07-16T10:12:22;46.86;35.76
71649;SHT31;70112;45.624;11.760;2023-07-16T10:14:51;47.59;33.89
71649;SHT31;70112;45.624;11.760;2023-07-16T10:17:24;48.50;33.37
71649;SHT31;70112;45.624;11.760;2023-07-16T10:19:58;49.52;32.03
71649;SHT31;70112;45.624;11.760;2023-07-16T10:22:37;50.49;31.20
71649;SHT31;70112;45.624;11.760;2023-07-16T10:27:46;51.01;29.23
71649;SHT31;70112;45.624;11.760;2023-07-16T10:30:14;50.99;29.07
71649;SHT31;70112;45.624;11.760;2023-07-16T14:30:21;34.53;51.69
71649;SHT31;70112;45.624;11.760;2023-07-16T14:32:46;34.48;51.62
71649;SHT31;70112;45.624;11.760;2023-07-16T14:35:12;34.44;51.12
71649;SHT31;70112;45.624;11.760;2023-07-16T14:37:37;34.39;50.99
71649;SHT31;70112;45.624;11.760;2023-07-16T14:40:03;34.36;50.96
71649;SHT31;70112;45.624;11.760;2023-07-16T14:42:32;34.35;51.48
71649;SHT31;70112;45.624;11.760;2023-07-16T14:44:58;34.34;51.20
71649;SHT31;70112;45.624;11.760;2023-07-16T14:47:25;34.34;50.79
71649;SHT31;70112;45.624;11.760;2023-07-16T14:49:51;34.29;51.51
71649;SHT31;70112;45.624;11.760;2023-07-16T14:52:17;34.27;52.05
71649;SHT31;70112;45.624;11.760;2023-07-16T14:54:44;34.21;52.01
71649;SHT31;70112;45.624;11.760;2023-07-16T14:57:10;34.15;52.11
71649;SHT31;70112;45.624;11.760;2023-07-16T14:59:35;34.13;51.26
71649;SHT31;70112;45.624;11.760;2023-07-16T15:02:02;34.10;52.13
71649;SHT31;70112;45.624;11.760;2023-07-16T15:04:29;34.14;52.43
71649;SHT31;70112;45.624;11.760;2023-07-16T15:06:55;34.16;52.69
71649;SHT31;70112;45.624;11.760;2023-07-16T15:09:21;34.15;52.62
71649;SHT31;70112;45.624;11.760;2023-07-16T15:11:47;34.13;52.44
71649;SHT31;70112;45.624;11.760;2023-07-16T15:14:12;34.13;52.83
71649;SHT31;70112;45.624;11.760;2023-07-16T15:16:38;34.13;52.47
71649;SHT31;70112;45.624;11.760;2023-07-16T15:19:04;34.13;52.80
71649;SHT31;70112;45.624;11.760;2023-07-16T15:21:30;34.06;53.32
71649;SHT31;70112;45.624;11.760;2023-07-16T15:23:55;34.04;53.47
71649;SHT31;70112;45.624;11.760;2023-07-16T15:26:21;34.00;53.42
71649;SHT31;70112;45.624;11.760;2023-07-16T15:28:46;34.00;53.85
71649;SHT31;70112;45.624;11.760;2023-07-16T15:31:12;33.97;53.66
71649;SHT31;70112;45.624;11.760;2023-07-16T15:33:38;33.94;52.69
71649;SHT31;70112;45.624;11.760;2023-07-16T15:36:04;33.89;52.99
71649;SHT31;70112;45.624;11.760;2023-07-16T15:38:30;33.79;53.34
71649;SHT31;70112;45.624;11.760;2023-07-16T15:40:57;33.73;53.56
71649;SHT31;70112;45.624;11.760;2023-07-16T15:43:22;33.67;54.04
71649;SHT31;70112;45.624;11.760;2023-07-16T15:45:48;33.63;53.35
71649;SHT31;70112;45.624;11.760;2023-07-16T15:48:14;33.64;52.68
71649;SHT31;70112;45.624;11.760;2023-07-16T15:50:39;33.67;52.40
71649;SHT31;70112;45.624;11.760;2023-07-16T15:53:06;33.71;52.17
71649;SHT31;70112;45.624;11.760;2023-07-16T15:55:31;33.73;52.85
71649;SHT31;70112;45.624;11.760;2023-07-16T15:57:57;33.73;52.00
71649;SHT31;70112;45.624;11.760;2023-07-16T16:00:25;33.72;51.53
71649;SHT31;70112;45.624;11.760;2023-07-16T16:02:51;33.71;51.47
71649;SHT31;70112;45.624;11.760;2023-07-16T16:05:20;33.74;52.00
71649;SHT31;70112;45.624;11.760;2023-07-16T16:07:49;33.75;51.96
71649;SHT31;70112;45.624;11.760;2023-07-16T16:10:50;33.74;52.41
71649;SHT31;70112;45.624;11.760;2023-07-16T16:13:17;33.74;52.70
71649;SHT31;70112;45.624;11.760;2023-07-16T16:15:44;33.74;52.69
71649;SHT31;70112;45.624;11.760;2023-07-16T16:18:10;33.73;53.02
71649;SHT31;70112;45.624;11.760;2023-07-16T16:20:37;33.73;53.04
71649;SHT31;70112;45.624;11.760;2023-07-16T16:23:04;33.73;52.71
71649;SHT31;70112;45.624;11.760;2023-07-16T16:25:30;33.71;52.60
71649;SHT31;70112;45.624;11.760;2023-07-16T16:28:00;33.69;52.05
71649;SHT31;70112;45.624;11.760;2023-07-16T16:30:31;33.66;51.64
71649;SHT31;70112;45.624;11.760;2023-07-16T16:32:58;33.63;51.08
71649;SHT31;70112;45.624;11.760;2023-07-16T16:35:27;33.62;51.75
71649;SHT31;70112;45.624;11.760;2023-07-16T16:37:53;33.61;51.99
71649;SHT31;70112;45.624;11.760;2023-07-16T16:40:20;33.59;51.82
71649;SHT31;70112;45.624;11.760;2023-07-16T16:42:46;33.57;52.06
71649;SHT31;70112;45.624;11.760;2023-07-16T16:45:12;33.56;52.29
71649;SHT31;70112;45.624;11.760;2023-07-16T16:47:41;33.54;51.78
71649;SHT31;70112;45.624;11.760;2023-07-16T16:50:07;33.51;52.12
71649;SHT31;70112;45.624;11.760;2023-07-16T16:52:33;33.51;52.28
71649;SHT31;70112;45.624;11.760;2023-07-16T16:54:59;33.50;52.60
71649;SHT31;70112;45.624;11.760;2023-07-16T16:57:29;33.47;52.34
71649;SHT31;70112;45.624;11.760;2023-07-16T16:59:56;33.44;52.40
71649;SHT31;70112;45.624;11.760;2023-07-16T17:02:22;33.42;52.84
71649;SHT31;70112;45.624;11.760;2023-07-16T17:04:48;33.39;52.87
71649;SHT31;70112;45.624;11.760;2023-07-16T17:07:14;33.36;53.02
71649;SHT31;70112;45.624;11.760;2023-07-16T17:09:40;33.31;53.05
71649;SHT31;70112;45.624;11.760;2023-07-16T17:12:09;33.27;53.17
71649;SHT31;70112;45.624;11.760;2023-07-16T17:14:35;33.20;53.00
71649;SHT31;70112;45.624;11.760;2023-07-16T17:17:02;33.14;52.91
71649;SHT31;70112;45.624;11.760;2023-07-16T17:19:28;33.09;52.75
71649;SHT31;70112;45.624;11.760;2023-07-16T17:21:54;33.04;52.75
71649;SHT31;70112;45.624;11.760;2023-07-16T17:24:20;32.99;52.31
71649;SHT31;70112;45.624;11.760;2023-07-16T17:26:47;32.95;52.51
71649;SHT31;70112;45.624;11.760;2023-07-16T17:29:13;32.90;52.95
71649;SHT31;70112;45.624;11.760;2023-07-16T17:31:39;32.87;53.51
71649;SHT31;70112;45.624;11.760;2023-07-16T17:34:04;32.82;54.21
71649;SHT31;70112;45.624;11.760;2023-07-16T17:36:30;32.76;54.44
71649;SHT31;70112;45.624;11.760;2023-07-16T17:38:55;32.71;54.32
71649;SHT31;70112;45.624;11.760;2023-07-16T17:41:21;32.66;54.44
71649;SHT31;70112;45.624;11.760;2023-07-16T17:43:47;32.60;54.41
71649;SHT31;70112;45.624;11.760;2023-07-16T17:46:12;32.55;54.45
71649;SHT31;70112;45.624;11.760;2023-07-16T20:20:27;28.47;66.91
71649;SHT31;70112;45.624;11.760;2023-07-16T20:22:53;28.51;66.79
71649;SHT31;70112;45.624;11.760;2023-07-16T20:25:21;28.54;66.88
71649;SHT31;70112;45.624;11.760;2023-07-16T20:27:52;28.59;66.96
71649;SHT31;70112;45.624;11.760;2023-07-16T20:30:20;28.63;67.24
71649;SHT31;70112;45.624;11.760;2023-07-16T20:32:45;28.67;67.42
71649;SHT31;70112;45.624;11.760;2023-07-16T20:35:11;28.70;67.51
71649;SHT31;70112;45.624;11.760;2023-07-16T20:37:37;28.73;67.46
71649;SHT31;70112;45.624;11.760;2023-07-16T20:40:03;28.74;67.40
71649;SHT31;70112;45.624;11.760;2023-07-16T20:42:35;28.75;67.60
71649;SHT31;70112;45.624;11.760;2023-07-16T20:47:41;28.78;67.81
71649;SHT31;70112;45.624;11.760;2023-07-16T20:50:08;28.81;67.86
71649;SHT31;70112;45.624;11.760;2023-07-16T20:52:36;28.85;67.82
71649;SHT31;70112;45.624;11.760;2023-07-16T20:55:05;28.88;67.86
71649;SHT31;70112;45.624;11.760;2023-07-16T20:57:33;28.90;67.97
71649;SHT31;70112;45.624;11.760;2023-07-16T20:59:59;28.92;67.97
71649;SHT31;70112;45.624;11.760;2023-07-16T21:02:25;28.95;67.89
71649;SHT31;70112;45.624;11.760;2023-07-16T21:04:50;28.96;68.04
71649;SHT31;70112;45.624;11.760;2023-07-16T21:07:16;28.96;68.10
71649;SHT31;70112;45.624;11.760;2023-07-16T21:09:41;28.95;68.27
71649;SHT31;70112;45.624;11.760;2023-07-16T21:12:07;28.94;68.40
71649;SHT31;70112;45.624;11.760;2023-07-16T21:14:32;28.90;68.51
71649;SHT31;70112;45.624;11.760;2023-07-16T21:16:58;28.89;68.54
71649;SHT31;70112;45.624;11.760;2023-07-16T21:19:23;28.85;68.68
71649;SHT31;70112;45.624;11.760;2023-07-16T21:21:49;28.79;68.76
71649;SHT31;70112;45.624;11.760;2023-07-16T21:24:14;28.74;68.91
71649;SHT31;70112;45.624;11.760;2023-07-16T21:26:40;28.74;68.89
71649;SHT31;70112;45.624;11.760;2023-07-16T21:29:07;28.76;68.89
71649;SHT31;70112;45.624;11.760;2023-07-16T21:31:33;28.78;68.96
71649;SHT31;70112;45.624;11.760;2023-07-16T21:33:59;28.80;69.08
71649;SHT31;70112;45.624;11.760;2023-07-16T21:36:24;28.81;69.21
71649;SHT31;70112;45.624;11.760;2023-07-16T21:38:51;28.80;69.24
71649;SHT31;70112;45.624;11.760;2023-07-16T21:41:16;28.79;69.24
71649;SHT31;70112;45.624;11.760;2023-07-16T21:43:43;28.77;69.37
71649;SHT31;70112;45.624;11.760;2023-07-16T21:46:09;28.74;69.43
71649;SHT31;70112;45.624;11.760;2023-07-16T21:48:34;28.73;69.48
71649;SHT31;70112;45.624;11.760;2023-07-16T21:51:00;28.72;69.47
71649;SHT31;70112;45.624;11.760;2023-07-16T21:53:25;28.74;69.51
71649;SHT31;70112;45.624;11.760;2023-07-16T21:55:51;28.74;69.62
71649;SHT31;70112;45.624;11.760;2023-07-16T21:58:16;28.71;69.60